Time;durP1;ratioP1;P1;durP2;ratioP2;P2;SDS_P1;SDS_P2;PMS_P1;PMS_P2;Temp;Humidity;BMP_temperature;BMP_pressure;BME280_temperature;BME280_humidity;BME280_pressure;Samples;Min_cycle;Max_cycle;Signal;HPM_P1;HPM_P2
2021/11/24 00:02:32;;;;;;;11.43;5.40;;;0.00;99.90;;;;;;20979503;28;20117;-51
2021/11/24 00:12:35;;;;;;;11.60;5.97;;;-0.10;99.90;;;;;;20979216;28;20032;-53
2021/11/24 00:22:38;;;;;;;11.73;6.18;;;-0.10;99.90;;;;;;20978094;28;20149;-51
2021/11/24 00:32:41;;;;;;;13.48;6.40;;;-0.20;99.90;;;;;;20977567;28;20068;-51
2021/11/24 00:42:43;;;;;;;13.38;6.88;;;-0.20;99.90;;;;;;20976811;28;20028;-55
2021/11/24 00:52:46;;;;;;;11.10;5.25;;;-0.20;99.90;;;;;;20975829;28;20087;-51
2021/11/24 01:02:49;;;;;;;9.43;5.43;;;-0.20;99.90;;;;;;20975153;28;20584;-53
2021/11/24 01:12:53;;;;;;;9.82;4.40;;;-0.20;99.90;;;;;;20974274;28;20078;-49
2021/11/24 01:22:56;;;;;;;6.85;3.33;;;-0.20;99.90;;;;;;20973469;28;20036;-52
2021/11/24 01:32:58;;;;;;;11.10;5.53;;;-0.20;99.90;;;;;;20973835;28;20089;-52
2021/11/24 01:43:01;;;;;;;6.32;3.33;;;-0.20;99.90;;;;;;20971042;28;20040;-54
2021/11/24 01:53:04;;;;;;;7.68;3.88;;;-0.20;99.90;;;;;;20970964;28;20058;-55
2021/11/24 02:03:06;;;;;;;8.65;4.18;;;-0.10;99.90;;;;;;20970643;28;20040;-49
2021/11/24 02:13:09;;;;;;;7.30;3.90;;;0.20;99.90;;;;;;20969545;28;20040;-51
2021/11/24 02:23:14;;;;;;;7.65;4.25;;;0.00;99.90;;;;;;20969554;28;20040;-50
2021/11/24 02:33:17;;;;;;;6.18;3.22;;;0.00;99.90;;;;;;20968574;28;20094;-53
2021/11/24 02:43:19;;;;;;;6.88;3.60;;;0.30;99.90;;;;;;20967898;28;20040;-55
2021/11/24 02:53:30;;;;;;;6.75;3.92;;;0.10;99.90;;;;;;20967177;28;20083;-51
2021/11/24 03:03:33;;;;;;;6.45;4.18;;;0.40;99.90;;;;;;20967079;28;20049;-50
2021/11/24 03:13:36;;;;;;;5.13;3.10;;;0.80;99.90;;;;;;20967059;28;20040;-51
2021/11/24 03:23:39;;;;;;;4.15;2.30;;;0.80;99.90;;;;;;20966197;28;20067;-50
2021/11/24 03:33:41;;;;;;;4.88;2.05;;;0.50;99.90;;;;;;20965756;28;20098;-51
2021/11/24 03:43:44;;;;;;;4.55;2.55;;;0.10;99.90;;;;;;20966016;28;20036;-50
2021/11/24 03:53:46;;;;;;;4.32;2.00;;;-0.20;99.90;;;;;;20965289;28;20036;-52
2021/11/24 04:03:49;;;;;;;4.50;2.60;;;-0.20;99.90;;;;;;20974957;28;20036;-49
2021/11/24 04:13:53;;;;;;;5.53;2.60;;;0.40;99.90;;;;;;20980226;28;20102;-51
2021/11/24 04:23:55;;;;;;;4.40;2.45;;;0.70;99.90;;;;;;20978335;28;20036;-50
2021/11/24 04:33:58;;;;;;;3.72;2.30;;;0.80;99.90;;;;;;20977503;28;20036;-53
2021/11/24 04:44:02;;;;;;;4.50;2.03;;;0.80;99.90;;;;;;20976921;28;20036;-53
2021/11/24 04:54:05;;;;;;;4.00;2.40;;;0.60;99.90;;;;;;20975729;28;20040;-49
2021/11/24 05:04:07;;;;;;;2.67;1.88;;;0.60;99.90;;;;;;20974575;28;20098;-51
2021/11/24 05:14:17;;;;;;;5.40;2.10;;;0.70;99.90;;;;;;20973910;28;20078;-54
2021/11/24 05:24:20;;;;;;;2.92;1.70;;;0.50;99.90;;;;;;20973174;28;20443;-49
2021/11/24 05:34:22;;;;;;;3.20;1.70;;;0.40;99.90;;;;;;20972496;28;20094;-48
2021/11/24 05:44:26;;;;;;;2.53;1.63;;;0.30;99.90;;;;;;20971467;28;20161;-49
2021/11/24 05:54:28;;;;;;;3.17;1.98;;;0.30;99.90;;;;;;20970683;28;20082;-49
2021/11/24 06:04:31;;;;;;;2.90;1.40;;;0.10;99.90;;;;;;20970052;28;20053;-54
2021/11/24 06:14:33;;;;;;;2.33;1.25;;;0.00;99.90;;;;;;20969818;28;20097;-50
2021/11/24 06:24:38;;;;;;;1.70;0.75;;;0.20;99.90;;;;;;20968377;28;20036;-51
2021/11/24 06:34:41;;;;;;;1.80;1.00;;;0.90;99.90;;;;;;20967657;28;20037;-51
2021/11/24 06:44:43;;;;;;;1.92;1.10;;;0.30;99.90;;;;;;20967513;28;20101;-49
2021/11/24 06:54:46;;;;;;;2.63;0.73;;;0.00;99.90;;;;;;20967048;28;20071;-50
2021/11/24 07:04:49;;;;;;;3.10;1.00;;;0.50;99.90;;;;;;20966530;28;20523;-54
2021/11/24 07:14:56;;;;;;;2.33;1.08;;;0.30;99.90;;;;;;20965964;28;20040;-53
2021/11/24 07:25:00;;;;;;;1.85;1.00;;;0.60;99.90;;;;;;20965542;28;20097;-51
2021/11/24 07:35:04;;;;;;;2.10;0.90;;;0.80;99.90;;;;;;20970846;28;20558;-49
2021/11/24 07:45:08;;;;;;;3.00;1.35;;;1.40;99.90;;;;;;20969862;28;20028;-51
2021/11/24 07:55:11;;;;;;;2.28;1.23;;;1.90;99.90;;;;;;20906355;28;20040;-52
2021/11/24 08:05:14;;;;;;;3.25;1.60;;;2.40;99.90;;;;;;20899545;28;20045;-55
2021/11/24 08:15:17;;;;;;;2.33;1.27;;;3.10;99.90;;;;;;20916273;28;20041;-56
2021/11/24 08:25:21;;;;;;;2.67;1.30;;;3.70;99.90;;;;;;20913402;28;20037;-54
2021/11/24 08:35:25;;;;;;;1.85;0.90;;;3.90;99.90;;;;;;20910878;28;20037;-55
2021/11/24 08:45:28;;;;;;;1.60;0.82;;;4.70;99.90;;;;;;20895879;28;20029;-55
2021/11/24 08:55:31;;;;;;;1.60;0.90;;;5.20;99.90;;;;;;20975605;28;20032;-53
2021/11/24 09:05:34;;;;;;;2.92;0.90;;;5.80;99.90;;;;;;20978755;28;20044;-54
2021/11/24 09:15:36;;;;;;;2.22;1.20;;;6.70;99.90;;;;;;20961092;28;20558;-57
2021/11/24 09:26:18;;;;;;;1.95;0.98;;;7.20;99.90;;;;;;20975306;28;20063;-52
2021/11/24 09:36:10;;;;;;;3.47;0.83;;;7.50;99.90;;;;;;20972489;28;20140;-55
2021/11/24 09:46:15;;;;;;;2.05;1.10;;;7.90;99.90;;;;;;20972338;28;20037;-55
2021/11/24 09:56:18;;;;;;;1.40;0.73;;;8.10;99.90;;;;;;20971459;28;20044;-53
2021/11/24 10:06:22;;;;;;;1.90;1.10;;;8.30;99.90;;;;;;20972485;28;20056;-51
2021/11/24 10:16:28;;;;;;;1.55;0.85;;;8.40;99.90;;;;;;20972140;28;20040;-56
2021/11/24 10:26:39;;;;;;;2.08;1.15;;;8.60;99.90;;;;;;20971625;28;20032;-54
2021/11/24 10:37:05;;;;;;;2.33;1.20;;;8.60;99.90;;;;;;20971248;28;20025;-53
2021/11/24 10:47:08;;;;;;;4.63;2.17;;;8.60;99.90;;;;;;20969803;28;20040;-51
2021/11/24 10:57:13;;;;;;;3.97;1.70;;;8.70;99.90;;;;;;20984682;28;20048;-55
2021/11/24 11:07:15;;;;;;;3.03;1.83;;;8.80;99.90;;;;;;20969804;28;20466;-56
2021/11/24 11:17:18;;;;;;;3.67;1.90;;;9.00;99.90;;;;;;20984372;28;20132;-56
2021/11/24 11:27:22;;;;;;;3.22;2.00;;;8.90;99.90;;;;;;20983678;28;20114;-54
2021/11/24 11:37:25;;;;;;;5.03;2.47;;;8.80;99.90;;;;;;20744894;28;20403;-56
2021/11/24 11:47:45;;;;;;;4.07;2.35;;;8.90;99.90;;;;;;20727813;28;20065;-52
2021/11/24 11:57:48;;;;;;;4.63;2.50;;;8.80;99.90;;;;;;20728849;28;20104;-51
2021/11/24 12:08:11;;;;;;;4.90;2.95;;;8.90;99.90;;;;;;20726594;28;20077;-56
2021/11/24 12:18:14;;;;;;;8.93;3.72;;;8.70;99.90;;;;;;20824634;28;20045;-53
2021/11/24 12:28:18;;;;;;;6.07;3.60;;;8.80;99.90;;;;;;20897457;28;20087;-56
2021/11/24 12:38:26;;;;;;;5.03;3.30;;;8.50;99.90;;;;;;20895529;28;20083;-51
2021/11/24 12:48:53;;;;;;;5.15;3.53;;;8.20;99.90;;;;;;20941120;28;20028;-55
2021/11/24 12:59:05;;;;;;;6.35;3.47;;;8.10;99.90;;;;;;20976438;28;20638;-55
2021/11/24 13:09:25;;;;;;;6.30;3.63;;;7.50;99.90;;;;;;20975272;28;20574;-54
2021/11/24 13:19:34;;;;;;;6.30;3.53;;;6.80;99.90;;;;;;20974665;28;20032;-54
2021/11/24 13:29:38;;;;;;;6.45;4.00;;;6.30;99.90;;;;;;20972831;28;20037;-51
2021/11/24 13:39:41;;;;;;;6.65;4.00;;;5.90;99.90;;;;;;20972588;28;20416;-51
2021/11/24 13:49:45;;;;;;;6.95;4.10;;;5.60;99.90;;;;;;20971853;28;20078;-56
2021/11/24 13:59:49;;;;;;;5.50;3.83;;;5.50;99.90;;;;;;20970904;28;20308;-52
2021/11/24 14:09:57;;;;;;;10.05;5.10;;;5.20;99.90;;;;;;20970347;28;20094;-51
2021/11/24 14:20:21;;;;;;;8.63;5.18;;;4.80;99.90;;;;;;20952818;28;20066;-53
2021/11/24 14:30:27;;;;;;;10.63;5.55;;;4.50;99.90;;;;;;20970415;28;20040;-52
2021/11/24 14:40:31;;;;;;;8.57;5.40;;;4.20;99.90;;;;;;20968763;28;20112;-56
2021/11/24 14:50:35;;;;;;;5.90;3.60;;;3.90;99.90;;;;;;20967666;28;20041;-53
2021/11/24 15:00:38;;;;;;;8.60;5.28;;;3.60;99.90;;;;;;20967415;28;20136;-55
2021/11/24 15:10:46;;;;;;;9.18;5.20;;;3.30;99.90;;;;;;20968971;28;20100;-51
2021/11/24 15:20:51;;;;;;;1.77;1.00;;;2.80;99.90;;;;;;20934425;28;20149;-53
2021/11/24 15:30:54;;;;;;;1.50;0.93;;;2.30;99.90;;;;;;20967199;28;20033;-51
2021/11/24 15:40:56;;;;;;;1.60;0.80;;;1.80;99.90;;;;;;20966386;28;20098;-56
2021/11/24 17:14:13;;;;;;;0.87;0.50;;;1.00;99.90;;;;;;21141584;27;20417;-51
2021/11/24 17:24:20;;;;;;;1.10;0.50;;;0.90;99.90;;;;;;21022177;28;20024;-50
2021/11/24 17:34:22;;;;;;;1.60;0.65;;;0.90;99.90;;;;;;21054089;28;20036;-49
2021/11/24 17:44:24;;;;;;;1.42;0.90;;;0.80;99.90;;;;;;21053762;28;20169;-52
2021/11/24 17:54:29;;;;;;;1.70;0.90;;;0.60;99.90;;;;;;21052758;28;20122;-52
2021/11/24 18:04:31;;;;;;;1.75;0.98;;;0.60;99.90;;;;;;21051736;28;20040;-50
2021/11/24 18:14:36;;;;;;;2.00;1.35;;;0.50;99.90;;;;;;20998194;28;20066;-52
2021/11/24 18:24:40;;;;;;;2.00;1.20;;;0.40;99.90;;;;;;20994627;28;20036;-52
2021/11/24 18:34:43;;;;;;;4.00;1.90;;;0.60;99.90;;;;;;20992311;28;20040;-49
2021/11/24 18:44:45;;;;;;;3.10;1.73;;;0.30;99.90;;;;;;20993440;28;20041;-51
2021/11/24 18:54:48;;;;;;;4.03;2.22;;;0.20;99.90;;;;;;20988950;28;20568;-55
2021/11/24 19:04:50;;;;;;;4.28;2.45;;;0.20;99.90;;;;;;20990038;28;20105;-49
2021/11/24 19:14:53;;;;;;;2.78;1.58;;;0.10;99.90;;;;;;20989900;28;20374;-50
2021/11/24 19:24:56;;;;;;;3.33;1.70;;;-0.10;99.90;;;;;;20988226;28;20459;-51
2021/11/24 19:35:00;;;;;;;2.65;1.10;;;-0.10;99.90;;;;;;20988254;28;20066;-51
2021/11/24 19:45:04;;;;;;;3.78;2.10;;;-0.20;99.90;;;;;;20987431;28;20066;-51
2021/11/24 19:55:08;;;;;;;3.28;1.70;;;-0.30;99.90;;;;;;20986492;28;20045;-52
2021/11/24 20:05:13;;;;;;;4.38;1.88;;;-0.50;99.90;;;;;;20985712;28;20523;-52
2021/11/24 20:15:20;;;;;;;6.40;2.45;;;-0.70;99.90;;;;;;20985093;28;20036;-52
2021/11/24 20:25:29;;;;;;;5.95;3.33;;;-0.70;99.90;;;;;;20986401;28;20436;-53
2021/11/24 20:35:34;;;;;;;3.53;2.30;;;-0.90;99.90;;;;;;20984612;28;20040;-53
2021/11/24 20:45:37;;;;;;;4.57;1.20;;;-0.70;99.90;;;;;;20984233;28;20445;-55
2021/11/24 20:55:40;;;;;;;4.18;2.17;;;-0.60;99.90;;;;;;20983483;28;20051;-51
2021/11/24 21:05:43;;;;;;;3.55;2.05;;;-0.50;99.90;;;;;;20982766;28;20041;-54
2021/11/24 21:15:46;;;;;;;2.88;1.35;;;-0.70;99.90;;;;;;20982699;28;20091;-55
2021/11/24 21:25:49;;;;;;;3.85;1.80;;;-0.70;99.90;;;;;;20982021;28;20441;-54
2021/11/24 21:35:52;;;;;;;2.85;1.60;;;-0.60;99.90;;;;;;20981889;28;20029;-51
2021/11/24 21:45:56;;;;;;;2.10;1.15;;;-0.50;99.90;;;;;;20989572;28;20036;-53
2021/11/24 21:55:59;;;;;;;1.38;0.80;;;-0.40;99.90;;;;;;20996051;28;20062;-50
2021/11/24 22:06:04;;;;;;;2.90;1.30;;;-0.30;99.90;;;;;;20994795;28;20036;-55
2021/11/24 22:16:08;;;;;;;1.92;0.80;;;-0.40;99.90;;;;;;20994751;28;20106;-55
2021/11/24 22:26:12;;;;;;;1.40;0.77;;;-0.30;99.90;;;;;;20993937;28;20401;-49
2021/11/24 22:36:15;;;;;;;1.38;0.52;;;-0.40;99.90;;;;;;20993377;28;20071;-54
2021/11/24 22:46:17;;;;;;;0.88;0.47;;;-0.60;99.90;;;;;;20992534;28;20071;-53
2021/11/24 22:56:21;;;;;;;1.20;0.70;;;-0.60;99.90;;;;;;20991515;28;20185;-53
2021/11/24 23:06:25;;;;;;;1.50;0.85;;;-0.80;99.90;;;;;;20990495;28;20106;-50
2021/11/24 23:16:30;;;;;;;0.98;0.55;;;-1.10;99.90;;;;;;20990371;28;20056;-54
2021/11/24 23:26:33;;;;;;;1.30;0.90;;;-1.20;99.90;;;;;;20989170;28;20113;-53
2021/11/24 23:36:35;;;;;;;1.60;0.95;;;-1.40;99.90;;;;;;20988414;28;20036;-50
2021/11/24 23:46:38;;;;;;;1.58;0.70;;;-1.50;99.90;;;;;;20988937;28;20093;-50
2021/11/24 23:56:40;;;;;;;1.20;0.70;;;-1.40;99.90;;;;;;20985847;28;20537;-51
